Time;durP1;ratioP1;P1;durP2;ratioP2;P2;SDS_P1;SDS_P2;PMS_P1;PMS_P2;Temp;Humidity;BMP_temperature;BMP_pressure;BME280_temperature;BME280_humidity;BME280_pressure;Samples;Min_cycle;Max_cycle;Signal;HPM_P1;HPM_P2
2023/01/15 00:02:22;;;;;;;4.10;3.70;;;4.70;99.90;;;;;;4974197;28;20054;-35
2023/01/15 00:04:50;;;;;;;2.60;2.50;;;4.80;99.90;;;;;;4982500;28;20057;-35
2023/01/15 00:07:18;;;;;;;3.08;2.88;;;4.80;99.90;;;;;;4982647;28;20043;-35
2023/01/15 00:09:45;;;;;;;4.72;2.90;;;4.70;99.90;;;;;;4981038;28;20050;-35
2023/01/15 00:12:13;;;;;;;4.38;2.90;;;4.70;99.90;;;;;;4982759;28;20054;-35
2023/01/15 00:14:40;;;;;;;3.20;2.92;;;4.80;99.90;;;;;;4983267;28;20054;-35
2023/01/15 00:17:08;;;;;;;3.30;2.40;;;4.80;99.90;;;;;;4982972;28;20260;-35
2023/01/15 00:19:35;;;;;;;2.70;2.50;;;4.80;99.90;;;;;;4982235;28;20291;-34
2023/01/15 00:22:03;;;;;;;2.90;2.33;;;4.80;99.90;;;;;;4975132;28;20275;-35
2023/01/15 00:30:03;;;;;;;2.30;2.10;;;5.00;99.90;;;;;;4978066;28;20053;-35
2023/01/15 00:32:31;;;;;;;4.15;3.75;;;5.00;99.90;;;;;;4980339;28;20053;-35
2023/01/15 00:34:59;;;;;;;1.83;1.73;;;5.10;99.90;;;;;;4986479;28;20057;-35
2023/01/15 00:37:27;;;;;;;3.28;2.97;;;5.00;99.90;;;;;;4985117;28;20050;-35
2023/01/15 00:39:55;;;;;;;2.97;2.78;;;5.00;99.90;;;;;;4984581;28;20529;-35
2023/01/15 00:42:22;;;;;;;3.72;2.35;;;5.00;99.90;;;;;;4968712;28;20051;-35
2023/01/15 00:44:50;;;;;;;2.38;2.25;;;5.00;99.90;;;;;;4985990;28;20050;-35
2023/01/15 00:47:17;;;;;;;3.95;2.33;;;4.90;99.90;;;;;;4986161;28;20053;-35
2023/01/15 00:49:45;;;;;;;4.13;2.20;;;4.90;99.90;;;;;;4984828;28;20553;-34
2023/01/15 00:52:12;;;;;;;2.88;2.67;;;4.80;99.90;;;;;;4967286;28;20546;-35
2023/01/15 00:54:40;;;;;;;2.88;2.67;;;4.80;99.90;;;;;;4984823;28;20541;-35
2023/01/15 00:57:10;;;;;;;5.25;3.42;;;4.70;99.90;;;;;;4985463;28;20042;-35
2023/01/15 00:59:38;;;;;;;2.72;2.35;;;4.80;99.90;;;;;;4985208;28;20057;-35
2023/01/15 01:02:05;;;;;;;2.83;2.63;;;4.80;99.90;;;;;;4968773;28;20054;-35
2023/01/15 01:04:34;;;;;;;2.92;2.72;;;4.80;99.90;;;;;;4947942;28;1087015;-36
2023/01/15 01:07:01;;;;;;;3.00;2.35;;;4.80;99.90;;;;;;4986550;28;20061;-35
2023/01/15 01:09:29;;;;;;;2.53;2.33;;;4.80;99.90;;;;;;4984483;28;20051;-35
2023/01/15 01:11:57;;;;;;;3.28;2.67;;;4.80;99.90;;;;;;4986519;28;20050;-35
2023/01/15 01:14:24;;;;;;;2.90;2.50;;;4.70;99.90;;;;;;4986851;28;20058;-35
2023/01/15 01:16:52;;;;;;;2.28;2.17;;;4.70;99.90;;;;;;4986295;28;20065;-35
2023/01/15 01:19:22;;;;;;;2.55;2.35;;;4.70;99.90;;;;;;4986088;28;20061;-34
2023/01/15 01:21:51;;;;;;;3.65;2.17;;;4.70;99.90;;;;;;4985740;28;20046;-35
2023/01/15 01:24:21;;;;;;;3.80;2.70;;;4.60;99.90;;;;;;4979687;28;20283;-35
2023/01/15 01:26:50;;;;;;;2.80;2.57;;;4.60;99.90;;;;;;4986499;28;20411;-35
2023/01/15 01:29:22;;;;;;;3.03;2.83;;;4.50;99.90;;;;;;4986289;28;20046;-35
2023/01/15 01:31:50;;;;;;;3.45;3.17;;;4.40;99.90;;;;;;4968372;28;20391;-36
2023/01/15 01:34:18;;;;;;;4.30;3.90;;;4.50;99.90;;;;;;4986024;28;20410;-34
2023/01/15 01:36:46;;;;;;;2.42;2.22;;;4.50;99.90;;;;;;4976524;28;20050;-35
2023/01/15 01:39:16;;;;;;;4.05;2.28;;;4.40;99.90;;;;;;4984253;28;20066;-35
2023/01/15 01:41:45;;;;;;;3.47;2.85;;;4.40;99.90;;;;;;4985800;28;20553;-35
2023/01/15 01:44:31;;;;;;;9.02;2.42;;;4.30;99.90;;;;;;4968699;28;20523;-35
2023/01/15 01:47:01;;;;;;;2.70;2.50;;;4.30;99.90;;;;;;4982490;28;20050;-35
2023/01/15 01:49:29;;;;;;;4.47;2.85;;;4.30;99.90;;;;;;4984901;28;20046;-35
2023/01/15 01:52:09;;;;;;;4.45;3.03;;;4.30;99.90;;;;;;4985944;28;20042;-36
2023/01/15 01:54:37;;;;;;;3.88;3.58;;;4.30;99.90;;;;;;4976209;28;20050;-35
2023/01/15 01:57:07;;;;;;;2.53;2.20;;;4.30;99.90;;;;;;4985111;28;20053;-35
2023/01/15 01:59:36;;;;;;;7.65;3.05;;;4.20;99.90;;;;;;4967840;28;20414;-34
2023/01/15 02:02:06;;;;;;;3.22;2.97;;;4.20;99.90;;;;;;4984632;28;20050;-35
2023/01/15 02:04:38;;;;;;;3.30;2.13;;;4.30;99.90;;;;;;4984525;28;20057;-35
2023/01/15 02:07:06;;;;;;;2.83;2.63;;;4.30;99.90;;;;;;4985257;28;20061;-35
2023/01/15 02:09:34;;;;;;;3.83;2.80;;;4.20;99.90;;;;;;4965930;28;20525;-35
2023/01/15 02:12:23;;;;;;;3.97;1.98;;;4.10;99.90;;;;;;4967433;28;20663;-35
2023/01/15 02:15:04;;;;;;;4.60;2.75;;;4.10;99.90;;;;;;4968038;28;20077;-35
2023/01/15 02:18:00;;;;;;;3.20;2.42;;;4.00;99.90;;;;;;4981060;28;20054;-35
2023/01/15 02:20:31;;;;;;;8.65;2.50;;;4.00;99.90;;;;;;4978627;28;20062;-35
2023/01/15 02:23:23;;;;;;;3.37;2.13;;;4.00;99.90;;;;;;4985051;28;20061;-35
2023/01/15 02:26:12;;;;;;;3.30;2.20;;;3.90;99.90;;;;;;4966838;28;20538;-35
2023/01/15 02:28:43;;;;;;;6.10;2.65;;;3.90;99.90;;;;;;4967429;28;20426;-35
2023/01/15 02:31:29;;;;;;;2.97;2.25;;;3.90;99.90;;;;;;4942690;28;20058;-35
2023/01/15 02:34:02;;;;;;;2.13;2.00;;;3.90;99.90;;;;;;4975546;28;20077;-35
2023/01/15 02:36:34;;;;;;;2.63;2.42;;;4.00;99.90;;;;;;4967097;28;20042;-35
2023/01/15 02:39:08;;;;;;;2.08;1.98;;;4.00;99.90;;;;;;4961001;28;20521;-35
2023/01/15 02:41:44;;;;;;;2.38;2.17;;;4.00;99.90;;;;;;4965992;28;20050;-35
2023/01/15 02:44:15;;;;;;;2.30;2.10;;;3.90;99.90;;;;;;4966319;28;20043;-35
2023/01/15 02:46:44;;;;;;;2.47;2.28;;;3.90;99.90;;;;;;4967616;28;20058;-35
2023/01/15 02:49:17;;;;;;;2.80;2.60;;;4.00;99.90;;;;;;4966271;28;20514;-35
2023/01/15 02:52:03;;;;;;;1.80;1.70;;;4.00;99.90;;;;;;4984195;28;20061;-35
2023/01/15 02:54:40;;;;;;;4.07;2.40;;;4.00;99.90;;;;;;4983782;28;20259;-35
2023/01/15 02:57:10;;;;;;;2.47;2.28;;;4.00;99.90;;;;;;4966747;28;20073;-34
2023/01/15 02:59:47;;;;;;;2.03;1.92;;;4.10;99.90;;;;;;4966836;28;20061;-34
2023/01/15 03:02:24;;;;;;;2.65;2.45;;;4.10;99.90;;;;;;4966928;28;20061;-34
2023/01/15 03:05:04;;;;;;;3.08;1.73;;;4.10;99.90;;;;;;4983461;28;20443;-34
2023/01/15 03:07:42;;;;;;;1.75;1.65;;;4.00;99.90;;;;;;4966072;28;20586;-34
2023/01/15 03:10:10;;;;;;;2.92;1.77;;;4.00;99.90;;;;;;4948751;28;20239;-34
2023/01/15 03:13:02;;;;;;;2.22;2.03;;;4.00;99.90;;;;;;4966545;28;20050;-34
2023/01/15 03:18:52;;;;;;;2.67;2.58;;;4.10;99.90;;;;;;4964988;28;20061;-34
2023/01/15 03:21:26;;;;;;;2.97;2.63;;;4.20;99.90;;;;;;4965994;28;20046;-34
2023/01/15 03:23:57;;;;;;;1.88;1.77;;;4.30;99.90;;;;;;4965064;28;20059;-34
2023/01/15 03:26:27;;;;;;;3.67;2.20;;;4.40;99.90;;;;;;4967409;28;20563;-34
2023/01/15 03:28:56;;;;;;;2.45;2.25;;;4.40;99.90;;;;;;4966340;28;20050;-34
2023/01/15 03:31:24;;;;;;;2.05;1.95;;;4.40;99.90;;;;;;4967009;28;20430;-34
2023/01/15 03:33:53;;;;;;;1.77;1.67;;;4.30;99.90;;;;;;4983886;28;20360;-34
2023/01/15 03:36:22;;;;;;;3.53;2.58;;;4.30;99.90;;;;;;4966348;28;20431;-35
2023/01/15 03:38:51;;;;;;;3.50;2.00;;;4.30;99.90;;;;;;4965586;28;20054;-34
2023/01/15 03:41:48;;;;;;;2.67;2.10;;;4.30;99.90;;;;;;4968235;28;20050;-34
2023/01/15 03:44:36;;;;;;;2.45;2.08;;;4.20;99.90;;;;;;4964675;28;20042;-34
2023/01/15 03:47:24;;;;;;;2.10;1.92;;;4.20;99.90;;;;;;4962629;28;20058;-34
2023/01/15 03:50:03;;;;;;;3.47;2.42;;;4.30;99.90;;;;;;4979685;28;20392;-34
2023/01/15 03:52:55;;;;;;;2.70;2.50;;;4.30;99.90;;;;;;4974876;28;20435;-34
2023/01/15 03:55:26;;;;;;;2.08;1.55;;;4.30;99.90;;;;;;4967116;28;20058;-35
2023/01/15 03:58:08;;;;;;;2.13;1.92;;;4.30;99.90;;;;;;4987142;28;20053;-34
2023/01/15 04:00:47;;;;;;;2.35;2.05;;;4.30;99.90;;;;;;4969671;28;20077;-34
2023/01/15 04:03:18;;;;;;;3.17;2.33;;;4.30;99.90;;;;;;4969741;28;20077;-34
2023/01/15 04:05:48;;;;;;;2.55;2.20;;;4.30;99.90;;;;;;4970124;28;20407;-34
2023/01/15 04:08:18;;;;;;;2.85;2.03;;;4.20;99.90;;;;;;4986327;28;20043;-34
2023/01/15 04:10:54;;;;;;;1.92;1.83;;;4.20;99.90;;;;;;4969495;28;20410;-34
2023/01/15 04:13:23;;;;;;;7.70;3.45;;;4.20;99.90;;;;;;4981226;28;20046;-34
2023/01/15 04:15:53;;;;;;;2.33;2.13;;;4.20;99.90;;;;;;4969795;28;20065;-34
2023/01/15 04:18:21;;;;;;;2.35;2.10;;;4.20;99.90;;;;;;4969586;28;20047;-34
2023/01/15 04:20:49;;;;;;;2.28;2.08;;;4.20;99.90;;;;;;4969509;28;20050;-34
2023/01/15 04:23:16;;;;;;;2.70;2.50;;;4.20;99.90;;;;;;4964065;28;20050;-34
2023/01/15 04:25:44;;;;;;;2.28;2.13;;;4.20;99.90;;;;;;4986116;28;20061;-34
2023/01/15 04:28:13;;;;;;;1.98;1.88;;;4.20;99.90;;;;;;4986574;28;20050;-34
2023/01/15 04:30:42;;;;;;;2.33;2.22;;;4.20;99.90;;;;;;4987106;28;20414;-34
2023/01/15 04:33:10;;;;;;;3.17;1.95;;;4.20;99.90;;;;;;4986337;28;20054;-34
2023/01/15 04:35:38;;;;;;;3.55;2.08;;;4.20;99.90;;;;;;4986872;28;20134;-35
2023/01/15 04:38:05;;;;;;;2.83;2.60;;;4.20;99.90;;;;;;4986492;28;20065;-34
2023/01/15 04:46:05;;;;;;;1.73;1.63;;;4.20;99.90;;;;;;4985973;28;20462;-34
2023/01/15 04:48:33;;;;;;;2.70;2.15;;;4.20;99.90;;;;;;4986032;28;20061;-34
2023/01/15 04:51:04;;;;;;;1.80;1.70;;;4.30;99.90;;;;;;4986332;28;20046;-34
2023/01/15 04:53:32;;;;;;;2.38;2.28;;;4.30;99.90;;;;;;4985563;28;20073;-34
2023/01/15 04:56:01;;;;;;;1.55;1.45;;;4.30;99.90;;;;;;4986091;28;20042;-34
2023/01/15 04:58:33;;;;;;;2.40;2.30;;;4.40;99.90;;;;;;4987177;28;20058;-34
2023/01/15 05:01:01;;;;;;;2.50;1.90;;;4.60;99.90;;;;;;4986097;28;20427;-34
2023/01/15 05:03:30;;;;;;;1.95;1.70;;;4.70;99.90;;;;;;4986030;28;20058;-34
2023/01/15 05:06:02;;;;;;;1.75;1.65;;;4.70;99.90;;;;;;4985934;28;20439;-34
2023/01/15 05:08:29;;;;;;;;;;;4.70;99.90;;;;;;4981175;28;20050;-34
2023/01/15 05:11:01;;;;;;;2.30;2.03;;;4.80;99.90;;;;;;4986566;28;19929;-34
2023/01/15 05:13:32;;;;;;;2.83;1.83;;;4.90;99.90;;;;;;4986411;28;20046;-34
2023/01/15 05:16:10;;;;;;;2.85;1.88;;;5.00;99.90;;;;;;4986715;28;20108;-34
2023/01/15 05:18:38;;;;;;;2.30;1.67;;;4.90;99.90;;;;;;4986331;28;20065;-34
2023/01/15 05:21:06;;;;;;;1.60;1.60;;;4.80;99.90;;;;;;4985819;28;20062;-34
2023/01/15 05:23:34;;;;;;;1.73;1.63;;;4.70;99.90;;;;;;4984904;28;20054;-34
2023/01/15 05:26:04;;;;;;;2.03;1.85;;;4.80;99.90;;;;;;4986298;28;20060;-34
2023/01/15 05:28:31;;;;;;;2.13;2.03;;;4.80;99.90;;;;;;4986059;28;20425;-34
2023/01/15 05:31:04;;;;;;;1.60;1.50;;;4.70;99.90;;;;;;4986338;28;20054;-34
2023/01/15 05:33:31;;;;;;;1.90;1.80;;;4.70;99.90;;;;;;4985696;28;20038;-34
2023/01/15 05:36:08;;;;;;;2.92;1.92;;;4.80;99.90;;;;;;4985867;28;20411;-34
2023/01/15 05:38:36;;;;;;;2.40;1.83;;;4.80;99.90;;;;;;4985543;28;20054;-34
2023/01/15 05:41:47;;;;;;;2.30;2.10;;;4.70;99.90;;;;;;4984510;28;20590;-34
2023/01/15 05:43:55;;;;;;;3.22;1.52;;;4.70;99.90;;;;;;4980952;28;20135;-34
2023/01/15 05:46:23;;;;;;;5.22;2.15;;;4.80;99.90;;;;;;4985820;28;20065;-34
2023/01/15 05:48:50;;;;;;;2.80;1.52;;;4.90;99.90;;;;;;4986313;28;20202;-34
2023/01/15 05:51:18;;;;;;;1.55;1.45;;;4.80;99.90;;;;;;4985519;28;20138;-35
2023/01/15 05:53:46;;;;;;;2.38;2.20;;;4.80;99.90;;;;;;4984764;28;20355;-34
2023/01/15 05:56:13;;;;;;;1.60;1.58;;;4.70;99.90;;;;;;4968445;28;20054;-34
2023/01/15 05:58:41;;;;;;;1.67;1.58;;;4.80;99.90;;;;;;4986480;28;20057;-34
2023/01/15 06:01:09;;;;;;;2.00;1.90;;;4.90;99.90;;;;;;4984676;28;20506;-34
2023/01/15 06:03:37;;;;;;;1.63;1.52;;;4.80;99.90;;;;;;4985411;28;20541;-34
2023/01/15 06:06:04;;;;;;;2.90;2.70;;;4.80;99.90;;;;;;4985646;28;20058;-34
2023/01/15 06:08:32;;;;;;;1.52;1.42;;;4.90;99.90;;;;;;4984224;28;20054;-35
2023/01/15 06:10:59;;;;;;;3.30;1.92;;;5.00;99.90;;;;;;4985325;28;20498;-34
2023/01/15 06:13:27;;;;;;;1.63;1.60;;;5.00;99.90;;;;;;4985271;28;20073;-35
2023/01/15 06:15:54;;;;;;;1.52;1.42;;;4.90;99.90;;;;;;4968414;28;20498;-34
2023/01/15 06:18:22;;;;;;;1.73;1.63;;;4.90;99.90;;;;;;4984179;28;20069;-34
2023/01/15 06:20:50;;;;;;;1.98;1.88;;;4.80;99.90;;;;;;4984763;28;20438;-34
2023/01/15 06:23:18;;;;;;;1.80;1.70;;;4.80;99.90;;;;;;4984355;28;20053;-34
2023/01/15 06:25:45;;;;;;;1.92;1.83;;;4.80;99.90;;;;;;4984087;28;20054;-34
2023/01/15 06:28:13;;;;;;;2.25;2.13;;;4.80;99.90;;;;;;4984631;28;20046;-34
2023/01/15 06:30:40;;;;;;;2.60;1.40;;;4.80;99.90;;;;;;4979171;28;20053;-34
2023/01/15 06:33:08;;;;;;;1.20;1.10;;;4.80;99.90;;;;;;4985465;28;20050;-34
2023/01/15 06:35:35;;;;;;;1.88;1.77;;;4.80;99.90;;;;;;4962496;28;20049;-34
2023/01/15 06:38:03;;;;;;;1.98;1.83;;;4.90;99.90;;;;;;4984889;28;20054;-34
2023/01/15 06:40:30;;;;;;;2.17;2.00;;;4.90;99.90;;;;;;4983962;28;20053;-34
2023/01/15 06:48:32;;;;;;;4.20;2.00;;;4.60;99.90;;;;;;4984524;28;20061;-34
2023/01/15 06:50:59;;;;;;;1.88;1.77;;;4.60;99.90;;;;;;4985138;28;20054;-34
2023/01/15 06:53:27;;;;;;;2.13;2.03;;;4.60;99.90;;;;;;4983904;28;20058;-34
2023/01/15 06:55:54;;;;;;;2.03;1.60;;;4.60;99.90;;;;;;4984202;28;20053;-34
2023/01/15 06:58:22;;;;;;;2.00;1.90;;;4.70;99.90;;;;;;4984553;28;20050;-34
2023/01/15 07:00:54;;;;;;;1.25;1.13;;;4.70;99.90;;;;;;4984518;28;20057;-34
2023/01/15 07:03:22;;;;;;;1.45;1.42;;;4.70;99.90;;;;;;4985379;28;20055;-34
2023/01/15 07:05:50;;;;;;;1.60;1.50;;;4.70;99.90;;;;;;4984330;28;20585;-35
2023/01/15 07:08:17;;;;;;;3.83;2.13;;;4.70;99.90;;;;;;4983957;28;20042;-34
2023/01/15 07:10:45;;;;;;;1.88;1.77;;;4.70;99.90;;;;;;4983659;28;20050;-34
2023/01/15 07:13:12;;;;;;;2.00;1.55;;;4.70;99.90;;;;;;4984459;28;20384;-34
2023/01/15 07:15:40;;;;;;;3.13;1.70;;;4.70;99.90;;;;;;4984210;28;20542;-33
2023/01/15 07:18:07;;;;;;;3.15;2.10;;;4.70;99.90;;;;;;4984444;28;20050;-34
2023/01/15 07:20:35;;;;;;;2.42;2.22;;;4.80;99.90;;;;;;4983731;28;20045;-34
2023/01/15 07:23:02;;;;;;;2.80;1.80;;;4.80;99.90;;;;;;4984017;28;20191;-34
2023/01/15 07:25:29;;;;;;;3.53;2.53;;;4.80;99.90;;;;;;4983121;28;20046;-34
2023/01/15 07:27:57;;;;;;;3.28;2.38;;;4.90;99.90;;;;;;4983686;28;20053;-34
2023/01/15 07:30:25;;;;;;;3.53;1.50;;;4.90;99.90;;;;;;4980832;28;20055;-34
2023/01/15 07:32:54;;;;;;;2.42;2.28;;;4.80;99.90;;;;;;4983233;28;20443;-34
2023/01/15 07:35:22;;;;;;;2.20;2.10;;;4.70;99.90;;;;;;4984225;28;20391;-34
2023/01/15 07:37:51;;;;;;;2.22;2.03;;;4.70;99.90;;;;;;4983268;28;20650;-34
2023/01/15 07:40:19;;;;;;;2.03;1.85;;;4.60;99.90;;;;;;4982993;28;20525;-34
2023/01/15 07:51:05;;;;;;;4.00;1.40;;;4.70;99.90;;;;;;4984156;28;20065;-34
2023/01/15 07:53:32;;;;;;;1.75;1.65;;;4.70;99.90;;;;;;4982594;28;20054;-44
2023/01/15 07:56:00;;;;;;;1.67;1.55;;;4.70;99.90;;;;;;4983649;28;20546;-45
2023/01/15 07:58:27;;;;;;;2.42;2.15;;;4.80;99.90;;;;;;4981649;28;20526;-45
2023/01/15 08:00:55;;;;;;;2.70;2.50;;;4.80;99.90;;;;;;4978479;28;20053;-44
2023/01/15 08:03:23;;;;;;;3.08;2.72;;;4.90;99.90;;;;;;4983975;28;20795;-44
2023/01/15 08:05:50;;;;;;;1.90;1.77;;;4.90;99.90;;;;;;4961011;28;20047;-44
2023/01/15 08:08:18;;;;;;;1.30;1.20;;;4.90;99.90;;;;;;4982853;28;20060;-45
2023/01/15 08:16:18;;;;;;;2.47;1.90;;;5.00;99.90;;;;;;4984692;28;20046;-44
2023/01/15 08:18:46;;;;;;;2.15;1.67;;;5.20;99.90;;;;;;4987656;28;20059;-44
2023/01/15 08:21:14;;;;;;;2.15;2.05;;;5.30;99.90;;;;;;4982294;28;20061;-43
2023/01/15 08:23:44;;;;;;;2.35;2.15;;;5.40;99.90;;;;;;4985342;28;20051;-44
2023/01/15 08:26:12;;;;;;;2.45;1.33;;;5.40;99.90;;;;;;4986778;28;20057;-44
2023/01/15 08:28:40;;;;;;;3.42;2.65;;;5.70;99.90;;;;;;4986515;28;20050;-43
2023/01/15 08:31:07;;;;;;;2.67;2.47;;;6.10;99.90;;;;;;4981440;28;20074;-44
2023/01/15 08:33:35;;;;;;;1.80;1.70;;;6.30;99.90;;;;;;4986756;28;20638;-44
2023/01/15 08:36:03;;;;;;;3.95;1.90;;;6.40;99.90;;;;;;4986294;28;20857;-44
2023/01/15 08:38:30;;;;;;;1.52;1.45;;;6.30;99.90;;;;;;4969112;28;20050;-44
2023/01/15 08:40:58;;;;;;;1.52;1.42;;;6.50;99.90;;;;;;4986747;28;20050;-44
2023/01/15 08:43:27;;;;;;;2.58;2.42;;;6.70;99.90;;;;;;4991167;28;20050;-44
2023/01/15 08:46:03;;;;;;;2.10;1.90;;;7.00;99.90;;;;;;4990978;28;20487;-44
2023/01/15 08:48:32;;;;;;;1.63;1.50;;;7.40;99.90;;;;;;4990062;28;20053;-44
2023/01/15 08:51:06;;;;;;;2.20;1.85;;;7.50;99.90;;;;;;4991088;28;20462;-43
2023/01/15 08:53:34;;;;;;;1.20;1.15;;;7.50;99.90;;;;;;4984155;28;20532;-44
2023/01/15 08:56:02;;;;;;;1.73;1.48;;;7.60;99.90;;;;;;4990155;28;20534;-44
2023/01/15 08:58:31;;;;;;;3.28;2.08;;;7.70;99.90;;;;;;4989653;28;20073;-44
2023/01/15 09:01:07;;;;;;;2.30;2.08;;;7.70;99.90;;;;;;4987133;28;20499;-44
2023/01/15 09:03:35;;;;;;;1.33;1.23;;;7.60;99.90;;;;;;4982990;28;20386;-44
2023/01/15 09:06:04;;;;;;;1.48;1.38;;;7.60;99.90;;;;;;4987141;28;20050;-44
2023/01/15 09:08:32;;;;;;;1.67;1.58;;;7.50;99.90;;;;;;4986245;28;20038;-44
2023/01/15 09:11:02;;;;;;;1.60;1.50;;;7.50;99.90;;;;;;4983561;28;20058;-44
2023/01/15 09:13:30;;;;;;;2.28;1.67;;;7.40;99.90;;;;;;4986030;28;20196;-44
2023/01/15 09:16:03;;;;;;;2.88;1.70;;;7.40;99.90;;;;;;4984214;28;20038;-44
2023/01/15 09:18:32;;;;;;;1.67;1.58;;;7.50;99.90;;;;;;4989653;28;20054;-44
2023/01/15 09:20:59;;;;;;;3.13;1.80;;;7.60;99.90;;;;;;4989169;28;20046;-44
2023/01/15 09:23:27;;;;;;;1.60;1.50;;;7.60;99.90;;;;;;4988448;28;20423;-44
2023/01/15 09:25:57;;;;;;;1.83;1.73;;;7.70;99.90;;;;;;4988132;28;20057;-44
2023/01/15 09:28:28;;;;;;;1.48;1.38;;;7.80;99.90;;;;;;4988984;28;20058;-44
2023/01/15 09:30:56;;;;;;;1.50;1.40;;;7.80;99.90;;;;;;4989698;28;20057;-43
2023/01/15 09:33:23;;;;;;;1.60;1.50;;;7.90;99.90;;;;;;4971055;28;20050;-44
2023/01/15 09:35:51;;;;;;;1.88;1.63;;;7.90;99.90;;;;;;4989214;28;20065;-43
2023/01/15 09:38:20;;;;;;;2.30;2.08;;;7.80;99.90;;;;;;4988992;28;20443;-44
2023/01/15 09:41:01;;;;;;;2.15;1.73;;;7.60;99.90;;;;;;4987317;28;20530;-44
2023/01/15 09:43:41;;;;;;;1.92;1.77;;;7.60;99.90;;;;;;4987894;28;20502;-44
2023/01/15 09:46:24;;;;;;;2.28;2.05;;;7.60;99.90;;;;;;4963893;28;20057;-34
2023/01/15 09:49:34;;;;;;;4.75;2.53;;;7.60;99.90;;;;;;4984308;28;20414;-34
2023/01/15 09:52:31;;;;;;;1.58;1.42;;;7.60;99.90;;;;;;4982852;28;20518;-34
2023/01/15 09:55:11;;;;;;;2.47;1.20;;;7.90;99.90;;;;;;4981388;28;20058;-34
2023/01/15 09:57:40;;;;;;;1.27;1.17;;;8.20;99.90;;;;;;4985004;28;20057;-34
2023/01/15 10:00:19;;;;;;;2.38;1.92;;;8.30;99.90;;;;;;4988368;28;20061;-34
2023/01/15 10:02:50;;;;;;;3.53;1.48;;;8.50;99.90;;;;;;4988813;28;20077;-35
2023/01/15 10:05:23;;;;;;;1.90;1.33;;;8.60;99.90;;;;;;4989258;28;20046;-34
2023/01/15 10:08:00;;;;;;;3.35;1.40;;;8.70;99.90;;;;;;4987482;28;20051;-34
2023/01/15 10:10:39;;;;;;;1.40;1.05;;;8.80;99.90;;;;;;4981942;28;20574;-34
2023/01/15 10:13:28;;;;;;;0.73;0.73;;;9.00;99.90;;;;;;4981736;28;20256;-34
2023/01/15 10:15:56;;;;;;;1.35;0.85;;;9.60;99.90;;;;;;4984891;28;20065;-34
2023/01/15 10:18:27;;;;;;;0.45;0.45;;;10.10;99.90;;;;;;4985211;28;20046;-34
2023/01/15 10:21:13;;;;;;;0.80;0.80;;;10.50;99.90;;;;;;4984175;28;20429;-34
2023/01/15 10:24:06;;;;;;;1.75;0.60;;;11.00;99.90;;;;;;4976553;28;20474;-33
2023/01/15 10:26:43;;;;;;;0.50;0.50;;;11.30;99.90;;;;;;4981385;28;20058;-34
2023/01/15 10:29:43;;;;;;;0.60;0.60;;;11.30;99.90;;;;;;4977601;28;20069;-34
2023/01/15 10:32:13;;;;;;;1.25;0.98;;;11.40;99.90;;;;;;4975476;28;20034;-34
2023/01/15 10:34:51;;;;;;;0.50;0.50;;;11.30;99.90;;;;;;4985632;28;20077;-35
2023/01/15 10:37:55;;;;;;;0.80;0.80;;;10.60;99.90;;;;;;4985178;28;20081;-36
2023/01/15 10:40:42;;;;;;;0.40;0.40;;;9.50;99.90;;;;;;4984048;28;20233;-34
2023/01/15 10:43:24;;;;;;;0.43;0.43;;;8.80;99.90;;;;;;4985854;28;20058;-34
2023/01/15 10:45:59;;;;;;;0.43;0.43;;;8.20;99.90;;;;;;4984817;28;20422;-35
2023/01/15 10:48:38;;;;;;;0.50;0.50;;;7.70;99.90;;;;;;4984755;28;20070;-38
2023/01/15 10:51:35;;;;;;;0.50;0.50;;;7.20;99.90;;;;;;4984027;28;20057;-37
2023/01/15 10:54:20;;;;;;;1.70;0.50;;;7.20;99.90;;;;;;4976635;28;20065;-37
2023/01/15 10:57:08;;;;;;;0.63;0.63;;;7.20;99.90;;;;;;4975924;28;20042;-38
2023/01/15 10:59:51;;;;;;;0.50;0.50;;;7.10;99.90;;;;;;4961602;28;20050;-37
2023/01/15 11:02:18;;;;;;;0.50;0.50;;;7.10;99.90;;;;;;4979697;28;20451;-34
2023/01/15 11:04:46;;;;;;;0.70;0.70;;;7.10;99.90;;;;;;4979539;28;20073;-37
2023/01/15 11:07:16;;;;;;;0.40;0.40;;;6.90;99.90;;;;;;4978187;28;20062;-37
2023/01/15 11:09:43;;;;;;;0.57;0.57;;;6.80;99.90;;;;;;4981960;28;20047;-35
2023/01/15 11:20:45;;;;;;;0.60;0.60;;;6.60;99.90;;;;;;4944067;28;20050;-35
2023/01/15 11:23:18;;;;;;;1.00;1.00;;;6.60;99.90;;;;;;4980382;28;20070;-34
2023/01/15 11:25:54;;;;;;;0.50;0.50;;;6.50;99.90;;;;;;4980680;28;20533;-37
2023/01/15 11:28:39;;;;;;;0.70;0.70;;;6.50;99.90;;;;;;4981519;28;20372;-34
2023/01/15 11:31:08;;;;;;;0.70;0.70;;;6.60;99.90;;;;;;4975063;28;20058;-34
2023/01/15 11:33:36;;;;;;;0.60;0.60;;;6.50;99.90;;;;;;4983766;28;20035;-35
2023/01/15 11:36:20;;;;;;;0.80;0.80;;;6.50;99.90;;;;;;4983843;28;20046;-36
2023/01/15 11:38:49;;;;;;;0.50;0.50;;;6.50;99.90;;;;;;4976147;28;20046;-36
2023/01/15 11:52:51;;;;;;;0.80;0.80;;;6.00;99.90;;;;;;4982563;28;20046;-35
2023/01/15 11:55:23;;;;;;;0.60;0.60;;;6.00;99.90;;;;;;4975206;28;20046;-34
2023/01/15 11:57:52;;;;;;;0.70;0.70;;;5.90;99.90;;;;;;4980404;28;20533;-34
2023/01/15 12:00:25;;;;;;;0.82;0.82;;;5.70;99.90;;;;;;4977043;28;20059;-35
2023/01/15 12:03:19;;;;;;;0.82;0.82;;;5.70;99.90;;;;;;4974104;28;20550;-35
2023/01/15 12:05:54;;;;;;;0.82;0.82;;;5.60;99.90;;;;;;4982711;28;20046;-34
2023/01/15 12:08:50;;;;;;;0.93;0.93;;;5.50;99.90;;;;;;4982681;28;20039;-34
2023/01/15 12:11:30;;;;;;;1.02;1.02;;;5.50;99.90;;;;;;4983383;28;20422;-35
2023/01/15 12:14:16;;;;;;;0.82;0.82;;;5.30;99.90;;;;;;4984332;28;20449;-35
2023/01/15 12:17:07;;;;;;;0.80;0.80;;;5.20;99.90;;;;;;4984794;28;20054;-36
2023/01/15 12:19:50;;;;;;;0.88;0.88;;;4.90;99.90;;;;;;4961881;28;20069;-34
2023/01/15 12:23:06;;;;;;;1.02;1.02;;;4.60;99.90;;;;;;4984377;28;20051;-34
2023/01/15 12:25:57;;;;;;;1.05;1.05;;;4.40;99.90;;;;;;4958423;28;20053;-34
2023/01/15 12:28:31;;;;;;;1.02;1.02;;;4.30;99.90;;;;;;4985891;28;20042;-36
2023/01/15 12:31:17;;;;;;;0.90;0.90;;;4.20;99.90;;;;;;4982234;28;20054;-35
2023/01/15 12:34:02;;;;;;;1.63;1.52;;;4.10;99.90;;;;;;4988042;28;20058;-35
2023/01/15 12:36:43;;;;;;;0.93;0.93;;;4.00;99.90;;;;;;4983609;28;20042;-35
2023/01/15 12:39:27;;;;;;;1.17;1.17;;;4.00;99.90;;;;;;4981850;28;20062;-35
2023/01/15 12:45:06;;;;;;;0.80;0.80;;;4.00;99.90;;;;;;4984109;28;20446;-34
2023/01/15 12:48:02;;;;;;;1.02;1.02;;;4.00;99.90;;;;;;4988012;28;20055;-34
2023/01/15 12:50:43;;;;;;;1.23;1.13;;;4.00;99.90;;;;;;4988049;28;20057;-34
2023/01/15 12:53:45;;;;;;;1.00;1.00;;;4.10;99.90;;;;;;4987979;28;20418;-35
2023/01/15 12:57:04;;;;;;;1.10;1.10;;;4.10;99.90;;;;;;4986862;28;20046;-35
2023/01/15 12:59:50;;;;;;;1.13;1.13;;;4.10;99.90;;;;;;4908723;29;20059;-35
2023/01/15 13:02:34;;;;;;;1.35;1.10;;;4.20;99.90;;;;;;4956192;28;20050;-34
2023/01/15 13:05:21;;;;;;;0.70;0.70;;;4.10;99.90;;;;;;4987352;28;20499;-34
2023/01/15 13:08:20;;;;;;;0.80;0.80;;;4.10;99.90;;;;;;4987145;28;20061;-34
2023/01/15 13:10:49;;;;;;;1.70;1.60;;;4.10;99.90;;;;;;4985225;28;20069;-35
2023/01/15 13:13:23;;;;;;;1.20;0.90;;;4.10;99.90;;;;;;4987814;28;20053;-34
2023/01/15 13:16:23;;;;;;;2.70;1.10;;;4.10;99.90;;;;;;4987652;28;20533;-34
2023/01/15 13:19:06;;;;;;;0.88;0.88;;;4.10;99.90;;;;;;4987811;28;20054;-33
2023/01/15 13:21:35;;;;;;;0.75;0.75;;;4.10;99.90;;;;;;4986971;28;20042;-33
2023/01/15 13:24:22;;;;;;;0.80;0.80;;;4.10;99.90;;;;;;4980432;28;20042;-34
2023/01/15 13:26:59;;;;;;;1.25;0.95;;;4.10;99.90;;;;;;4987050;28;20051;-34
2023/01/15 13:29:48;;;;;;;0.80;0.80;;;4.10;99.90;;;;;;4986139;28;20050;-33
2023/01/15 13:32:18;;;;;;;0.95;0.95;;;4.10;99.90;;;;;;4983547;28;20390;-34
2023/01/15 13:34:55;;;;;;;0.75;0.75;;;4.10;99.90;;;;;;4986819;28;20051;-33
2023/01/15 13:37:28;;;;;;;1.08;1.08;;;4.00;99.90;;;;;;4985678;28;20050;-34
2023/01/15 13:40:26;;;;;;;1.00;1.00;;;4.00;99.90;;;;;;4980418;28;20046;-33
2023/01/15 13:42:55;;;;;;;1.00;1.00;;;4.00;99.90;;;;;;4979670;28;20054;-34
2023/01/15 13:45:31;;;;;;;2.58;1.02;;;4.00;99.90;;;;;;4986202;28;20272;-33
2023/01/15 13:48:22;;;;;;;1.02;1.02;;;4.00;99.90;;;;;;4985932;28;20045;-34
2023/01/15 13:50:53;;;;;;;1.52;1.42;;;4.00;99.90;;;;;;4986598;28;20054;-33
2023/01/15 13:53:30;;;;;;;0.80;0.80;;;4.00;99.90;;;;;;4985514;28;20049;-34
2023/01/15 13:56:04;;;;;;;1.23;1.23;;;4.00;99.90;;;;;;4985611;28;20049;-33
2023/01/15 13:58:52;;;;;;;1.13;1.13;;;4.00;99.90;;;;;;4986963;28;20058;-33
2023/01/15 14:01:23;;;;;;;0.88;0.85;;;4.10;99.90;;;;;;4985544;28;20054;-34
2023/01/15 14:04:05;;;;;;;1.00;1.00;;;4.10;99.90;;;;;;4968876;28;20533;-34
2023/01/15 14:06:48;;;;;;;0.80;0.80;;;4.20;99.90;;;;;;4986831;28;20081;-34
2023/01/15 14:09:21;;;;;;;1.05;1.05;;;4.20;99.90;;;;;;4983991;28;20677;-34
2023/01/15 14:12:23;;;;;;;1.08;1.00;;;4.20;99.90;;;;;;4985698;28;20057;-34
2023/01/15 14:15:00;;;;;;;1.27;1.13;;;4.20;99.90;;;;;;4982167;28;20065;-34
2023/01/15 14:17:51;;;;;;;0.90;0.90;;;4.20;99.90;;;;;;4985006;28;20074;-34
2023/01/15 14:20:39;;;;;;;2.75;1.45;;;4.20;99.90;;;;;;4984873;28;20310;-33
2023/01/15 14:23:52;;;;;;;0.93;0.93;;;4.20;99.90;;;;;;4984898;28;20054;-34
2023/01/15 14:26:30;;;;;;;1.23;0.75;;;4.20;99.90;;;;;;4981523;28;20050;-33
2023/01/15 14:29:24;;;;;;;1.20;1.10;;;4.20;99.90;;;;;;4985311;28;20046;-34
2023/01/15 14:32:30;;;;;;;1.17;1.17;;;4.10;99.90;;;;;;4974877;28;20061;-33